Saint John, Washington
Current Conditions -  °F | °C
As of 11:53 AM on Sunday 23 Nov 2014 (Local Time) from KPUW Reporting Station
Overcast Overcast  
Wind Chill: 36°   Ceiling: 4000
Heat Index: 44°   Visibility: 10mi
Dew Point: 32°   Wind: 17mph
Humidity: 63%   Direction: 230°SW
Pressure: 30.1"   Gusts: NA
Location:  47.09°N, 117.58°W
Report Text: KPUW 231953Z AUTO 23015KT 10SM BKN040 OVC049 07/00 A3010 RMK AO2 PK WND 23030/1913 SLP209 T00670000
Loading
Personal Weather Stations






























Interactive Weather Map New forecast layout! Learn more

10-Day Weather Forecast

Advertisements
Track Severe Weather on mobile